WetterOnline ( http://www.wetteronline.de )

Wetter aktuell Dortmund

Aktuelles Wetter: Werl (84m)

6-stündlich | Neueste Meldungen
Ortszeit Temperatur Wetter
Mi, 26.09. 8:00 5.8° C bedeckt
Mi, 26.09. 2:00 7.4° C wolkig
Di, 25.09. 20:00 10.6° C fast wolkenlos
Di, 25.09. 14:00 13.6° C bedeckt
Di, 25.09. 8:00 5.3° C wolkenlos
Di, 25.09. 2:00 7.1° C fast wolkenlos
Mo, 24.09. 20:00 9.9° C wolkenlos
Mo, 24.09. 14:00 13.1° C bewölkt
Ortszeit Temperatur Wetter
Mi, 26.09. 12:00 14.3° C leicht bewölkt
Mi, 26.09. 11:50 14.3° C wolkig
Mi, 26.09. 11:40 14.1° C wolkig
Mi, 26.09. 11:30 13.5° C wolkig
Mi, 26.09. 11:20 13.5° C wolkig
Mi, 26.09. 11:10 13.4° C wolkig
Mi, 26.09. 11:00 12.9° C wolkig
Mi, 26.09. 10:30 11.8° C wolkig
Mi, 26.09. 10:00 10.6° C wolkig
Mi, 26.09. 9:30 10.0° C bewölkt
Mi, 26.09. 9:00 8.4° C bedeckt
Ortszeit Relative Feuchte Sichtweite
Mi, 26.09. 8:00 79% 60 km
Mi, 26.09. 2:00 77% 65 km
Di, 25.09. 20:00 74% 45 km
Di, 25.09. 14:00 54% 70 km
Di, 25.09. 8:00 91% 16 km
Di, 25.09. 2:00 87% 35 km
Mo, 24.09. 20:00 72% 70 km
Mo, 24.09. 14:00 59% 45 km
Ortszeit Relative Feuchte Sichtweite
Mi, 26.09. 12:00 45% 60 km
Mi, 26.09. 11:50 45% -
Mi, 26.09. 11:40 47% -
Mi, 26.09. 11:30 48% 70 km
Mi, 26.09. 11:20 48% -
Mi, 26.09. 11:10 47% -
Mi, 26.09. 11:00 52% 70 km
Mi, 26.09. 10:30 58% 70 km
Mi, 26.09. 10:00 62% 70 km
Mi, 26.09. 9:30 65% 70 km
Mi, 26.09. 9:00 75% 70 km
Ortszeit Niederschlagsmenge Niederschlagsart
Mi, 26.09. 8:00 0.0 l/m2 in 12 Std. -
Mi, 26.09. 2:00 0.0 l/m2 in 6 Std. -
Di, 25.09. 20:00 0.0 l/m2 in 12 Std. -
Di, 25.09. 14:00 0.0 l/m2 in 6 Std. -
Di, 25.09. 8:00 0.1 l/m2 in 12 Std. -
Di, 25.09. 2:00 0.1 l/m2 in 6 Std. Regen
Mo, 24.09. 20:00 0.6 l/m2 in 12 Std. Regen
Mo, 24.09. 14:00 0.1 l/m2 in 6 Std. Regen
Ortszeit Niederschlagsmenge Niederschlagsart
Mi, 26.09. 12:00 0.0 l/m2 in 1 Std. -
Mi, 26.09. 11:50 keine Meldung -
Mi, 26.09. 11:40 keine Meldung -
Mi, 26.09. 11:30 0.0 l/m2 in 1 Std. -
Mi, 26.09. 11:20 keine Meldung -
Mi, 26.09. 11:10 keine Meldung -
Mi, 26.09. 11:00 0.0 l/m2 in 1 Std. -
Mi, 26.09. 10:30 0.0 l/m2 in 1 Std. -
Mi, 26.09. 10:00 0.0 l/m2 in 1 Std. -
Mi, 26.09. 9:30 0.0 l/m2 in 1 Std. -
Mi, 26.09. 9:00 0.0 l/m2 in 1 Std. -
Ortszeit Stärke Spitze Richtung
km/h Bft. km/h Grad Sektor
Mi, 26.09. 8:00 0 0 14 - -
Mi, 26.09. 2:00 7 2 14 170° S
Di, 25.09. 20:00 4 1 18 40° NO
Di, 25.09. 14:00 4 1 14 360° N
Di, 25.09. 8:00 7 2 11 220° SW
Di, 25.09. 2:00 9 2 19 250° W
Mo, 24.09. 20:00 13 3 44 290° W
Mo, 24.09. 14:00 28 4 39 290° W
Ortszeit Stärke Spitze Richtung
km/h Bft. km/h Grad Sektor
Mi, 26.09. 12:00 14 3 25 220° SW
Mi, 26.09. 11:50 14 3 - 220° SW
Mi, 26.09. 11:40 15 3 - 220° SW
Mi, 26.09. 11:30 14 3 22 220° SW
Mi, 26.09. 11:20 14 3 - 220° SW
Mi, 26.09. 11:10 15 3 - 220° SW
Mi, 26.09. 11:00 9 2 19 230° SW
Mi, 26.09. 10:30 9 2 19 240° SW
Mi, 26.09. 10:00 11 2 20 220° SW
Mi, 26.09. 9:30 7 2 14 220° SW
Mi, 26.09. 9:00 0 0 0 - -
Ortszeit Untergrenze Bedeckung Gattung
total tief tief mittel hoch
Mi, 26.09. 8:00 6900 m 8/8 8/8 - - -
Mi, 26.09. 2:00 8400 m 7/8 0/8 - - -
Di, 25.09. 20:00 9000 m 2/8 0/8 - - -
Di, 25.09. 14:00 1080 m 8/8 8/8 - - -
Di, 25.09. 8:00 - 0/8 0/8 - - -
Di, 25.09. 2:00 2400 m 1/8 1/8 - - -
Mo, 24.09. 20:00 - 0/8 0/8 - - -
Mo, 24.09. 14:00 1170 m 7/8 7/8 - - -
Ortszeit Bedeckungsgrad in Achtel und Wolkenuntergrenze
Mi, 26.09. 12:00 7(9000m)
Mi, 26.09. 11:50 7(9000m)
Mi, 26.09. 11:40 2(8400m) 7(9000m)
Mi, 26.09. 11:30 5(8400m) 8(9000m) 6(10500m)
Mi, 26.09. 11:20 5(8400m) 8(9000m)
Mi, 26.09. 11:10 7(9000m)
Mi, 26.09. 11:00 7(9000m) 8(9000m)
Mi, 26.09. 10:30 8(8400m) 8(8700m)
Mi, 26.09. 10:00 8(7500m) 8(10500m)
Mi, 26.09. 9:30 5(6600m) 8(7200m) 8(9000m)
Mi, 26.09. 9:00 8(6900m)
Ortszeit Luftdruck NN (hPa) Tendenz (hPa in 3 Std.)
Mi, 26.09. 8:00 1035 - 0,7
Mi, 26.09. 2:00 1037 - 0,8
Di, 25.09. 20:00 1039 + 0,1
Di, 25.09. 14:00 1040 + 0,3
Di, 25.09. 8:00 1039 + 0,6
Di, 25.09. 2:00 1037 + 1,2
Mo, 24.09. 20:00 1034 + 1,4
Mo, 24.09. 14:00 1033 + 0,6
Ortszeit Luftdruck NN (hPa) Tendenz (hPa in 3 Std.)
Mi, 26.09. 12:00 1035 + 0,2
Mi, 26.09. 11:50 1035 keine Meldung
Mi, 26.09. 11:40 1035 keine Meldung
Mi, 26.09. 11:30 1035 + 0,1
Mi, 26.09. 11:20 1035 keine Meldung
Mi, 26.09. 11:10 1035 keine Meldung
Mi, 26.09. 11:00 1035 0,0
Mi, 26.09. 10:30 1035 0,0
Mi, 26.09. 10:00 1035 - 0,1
Mi, 26.09. 9:30 1035 - 0,5
Mi, 26.09. 9:00 1035 - 0,8
Ortszeit Schneehöhe (cm)
Mi, 26.09. 8:00 -
Mi, 26.09. 2:00 -
Di, 25.09. 20:00 -
Di, 25.09. 14:00 -
Di, 25.09. 8:00 -
Di, 25.09. 2:00 -
Mo, 24.09. 20:00 -
Mo, 24.09. 14:00 -
Ortszeit Schneehöhe (cm)
Mi, 26.09. 12:00 -
Mi, 26.09. 11:50 -
Mi, 26.09. 11:40 -
Mi, 26.09. 11:30 -
Mi, 26.09. 11:20 -
Mi, 26.09. 11:10 -
Mi, 26.09. 11:00 -
Mi, 26.09. 10:30 -
Mi, 26.09. 10:00 -
Mi, 26.09. 9:30 -
Mi, 26.09. 9:00 -
Link zu dieser Seite / Seite empfehlen

Das Wetter in ...